sensor_id;sensor_type;location;lat;lon;timestamp;P1;durP1;ratioP1;P2;durP2;ratioP2
28009;SDS011;15334;49.494;8.410;2022-08-01T00:01:32;2.60;;;1.45;;
28009;SDS011;15334;49.494;8.410;2022-08-01T00:04:00;3.00;;;1.30;;
28009;SDS011;15334;49.494;8.410;2022-08-01T00:06:29;2.58;;;1.27;;
28009;SDS011;15334;49.494;8.410;2022-08-01T00:08:57;2.47;;;1.10;;
28009;SDS011;15334;49.494;8.410;2022-08-01T00:11:25;3.83;;;1.50;;
28009;SDS011;15334;49.494;8.410;2022-08-01T00:13:53;2.60;;;1.35;;
28009;SDS011;15334;49.494;8.410;2022-08-01T00:16:21;3.47;;;1.58;;
28009;SDS011;15334;49.494;8.410;2022-08-01T00:18:52;2.97;;;1.20;;
28009;SDS011;15334;49.494;8.410;2022-08-01T00:21:20;3.45;;;1.40;;
28009;SDS011;15334;49.494;8.410;2022-08-01T00:23:49;3.75;;;1.60;;
28009;SDS011;15334;49.494;8.410;2022-08-01T00:26:17;2.35;;;1.30;;
28009;SDS011;15334;49.494;8.410;2022-08-01T00:28:45;2.67;;;1.40;;
28009;SDS011;15334;49.494;8.410;2022-08-01T00:31:13;4.47;;;1.50;;
28009;SDS011;15334;49.494;8.410;2022-08-01T00:33:41;2.95;;;1.58;;
28009;SDS011;15334;49.494;8.410;2022-08-01T00:36:11;2.03;;;1.27;;
28009;SDS011;15334;49.494;8.410;2022-08-01T00:38:39;3.05;;;1.20;;
28009;SDS011;15334;49.494;8.410;2022-08-01T00:41:07;1.33;;;0.85;;
28009;SDS011;15334;49.494;8.410;2022-08-01T20:43:33;4.95;;;2.47;;
28009;SDS011;15334;49.494;8.410;2022-08-01T20:46:02;4.25;;;2.22;;
28009;SDS011;15334;49.494;8.410;2022-08-01T20:48:31;4.07;;;2.25;;
28009;SDS011;15334;49.494;8.410;2022-08-01T20:51:02;6.18;;;3.00;;
28009;SDS011;15334;49.494;8.410;2022-08-01T20:53:44;6.95;;;2.65;;
28009;SDS011;15334;49.494;8.410;2022-08-01T20:56:14;5.70;;;2.38;;
28009;SDS011;15334;49.494;8.410;2022-08-01T20:58:54;5.13;;;2.67;;
28009;SDS011;15334;49.494;8.410;2022-08-01T21:01:32;6.22;;;2.78;;
28009;SDS011;15334;49.494;8.410;2022-08-01T21:04:08;5.53;;;2.90;;
28009;SDS011;15334;49.494;8.410;2022-08-01T21:07:20;7.25;;;3.80;;
28009;SDS011;15334;49.494;8.410;2022-08-01T21:10:46;9.25;;;3.72;;
28009;SDS011;15334;49.494;8.410;2022-08-01T21:13:31;8.75;;;4.00;;
28009;SDS011;15334;49.494;8.410;2022-08-01T21:16:44;6.97;;;3.50;;
28009;SDS011;15334;49.494;8.410;2022-08-01T21:19:32;5.85;;;3.85;;
28009;SDS011;15334;49.494;8.410;2022-08-01T21:22:21;7.97;;;3.28;;
28009;SDS011;15334;49.494;8.410;2022-08-01T21:25:32;4.95;;;2.70;;
28009;SDS011;15334;49.494;8.410;2022-08-01T21:28:41;5.70;;;3.20;;
28009;SDS011;15334;49.494;8.410;2022-08-01T21:31:53;4.80;;;2.08;;
28009;SDS011;15334;49.494;8.410;2022-08-01T21:38:19;4.55;;;2.58;;
28009;SDS011;15334;49.494;8.410;2022-08-01T21:41:26;4.40;;;2.28;;
28009;SDS011;15334;49.494;8.410;2022-08-01T21:44:37;4.70;;;2.38;;
28009;SDS011;15334;49.494;8.410;2022-08-01T21:47:36;4.03;;;2.20;;
28009;SDS011;15334;49.494;8.410;2022-08-01T21:52:04;7.57;;;2.10;;
28009;SDS011;15334;49.494;8.410;2022-08-01T21:54:01;5.93;;;2.22;;
28009;SDS011;15334;49.494;8.410;2022-08-01T21:56:37;4.32;;;2.22;;
28009;SDS011;15334;49.494;8.410;2022-08-01T21:59:15;3.40;;;2.20;;
28009;SDS011;15334;49.494;8.410;2022-08-01T22:01:51;3.97;;;1.80;;
28009;SDS011;15334;49.494;8.410;2022-08-01T22:04:29;5.57;;;2.35;;
28009;SDS011;15334;49.494;8.410;2022-08-01T22:07:04;4.15;;;2.38;;
28009;SDS011;15334;49.494;8.410;2022-08-01T22:09:36;4.82;;;2.40;;
28009;SDS011;15334;49.494;8.410;2022-08-01T22:12:06;4.40;;;2.35;;
28009;SDS011;15334;49.494;8.410;2022-08-01T22:14:39;4.15;;;2.35;;
28009;SDS011;15334;49.494;8.410;2022-08-01T22:17:09;3.80;;;2.25;;
28009;SDS011;15334;49.494;8.410;2022-08-01T22:19:47;4.85;;;2.15;;
28009;SDS011;15334;49.494;8.410;2022-08-01T22:22:19;4.18;;;1.95;;
28009;SDS011;15334;49.494;8.410;2022-08-01T22:25:09;3.90;;;2.08;;
28009;SDS011;15334;49.494;8.410;2022-08-01T22:27:38;5.55;;;2.05;;
28009;SDS011;15334;49.494;8.410;2022-08-01T22:30:27;6.47;;;2.42;;
28009;SDS011;15334;49.494;8.410;2022-08-01T22:32:56;7.63;;;2.60;;
28009;SDS011;15334;49.494;8.410;2022-08-01T22:35:43;6.35;;;2.92;;
28009;SDS011;15334;49.494;8.410;2022-08-01T22:38:13;4.50;;;2.27;;
28009;SDS011;15334;49.494;8.410;2022-08-01T22:40:44;3.13;;;1.85;;
28009;SDS011;15334;49.494;8.410;2022-08-01T22:43:23;3.75;;;2.15;;
28009;SDS011;15334;49.494;8.410;2022-08-01T22:45:59;3.13;;;1.88;;
28009;SDS011;15334;49.494;8.410;2022-08-01T22:48:55;7.07;;;2.22;;
28009;SDS011;15334;49.494;8.410;2022-08-01T22:51:33;5.10;;;2.17;;
28009;SDS011;15334;49.494;8.410;2022-08-01T22:54:21;4.07;;;2.30;;
28009;SDS011;15334;49.494;8.410;2022-08-01T22:56:55;3.67;;;2.10;;
28009;SDS011;15334;49.494;8.410;2022-08-01T22:59:35;3.95;;;2.15;;
28009;SDS011;15334;49.494;8.410;2022-08-01T23:02:08;4.38;;;2.28;;
28009;SDS011;15334;49.494;8.410;2022-08-01T23:04:41;3.97;;;2.05;;
28009;SDS011;15334;49.494;8.410;2022-08-01T23:07:16;5.38;;;2.45;;
28009;SDS011;15334;49.494;8.410;2022-08-01T23:09:46;4.90;;;2.10;;
28009;SDS011;15334;49.494;8.410;2022-08-01T23:12:22;3.95;;;2.20;;
28009;SDS011;15334;49.494;8.410;2022-08-01T23:14:52;5.00;;;2.92;;
28009;SDS011;15334;49.494;8.410;2022-08-01T23:17:22;3.08;;;1.90;;
28009;SDS011;15334;49.494;8.410;2022-08-01T23:19:55;4.90;;;2.17;;
28009;SDS011;15334;49.494;8.410;2022-08-01T23:22:27;3.80;;;2.15;;
28009;SDS011;15334;49.494;8.410;2022-08-01T23:24:58;4.38;;;2.17;;
28009;SDS011;15334;49.494;8.410;2022-08-01T23:27:31;3.35;;;1.95;;
28009;SDS011;15334;49.494;8.410;2022-08-01T23:30:20;4.95;;;2.47;;
28009;SDS011;15334;49.494;8.410;2022-08-01T23:32:51;4.32;;;2.22;;
28009;SDS011;15334;49.494;8.410;2022-08-01T23:35:19;3.95;;;2.00;;
28009;SDS011;15334;49.494;8.410;2022-08-01T23:37:49;5.72;;;2.28;;
28009;SDS011;15334;49.494;8.410;2022-08-01T23:40:17;3.67;;;2.35;;
28009;SDS011;15334;49.494;8.410;2022-08-01T23:42:50;3.05;;;1.90;;
28009;SDS011;15334;49.494;8.410;2022-08-01T23:45:20;4.32;;;2.15;;
28009;SDS011;15334;49.494;8.410;2022-08-01T23:47:49;3.60;;;1.85;;
28009;SDS011;15334;49.494;8.410;2022-08-01T23:50:17;4.72;;;2.10;;
28009;SDS011;15334;49.494;8.410;2022-08-01T23:52:49;3.60;;;2.03;;
28009;SDS011;15334;49.494;8.410;2022-08-01T23:55:18;3.42;;;2.20;;
28009;SDS011;15334;49.494;8.410;2022-08-01T23:58:02;5.75;;;2.35;;
